Time,TemperatureF,DewpointF,PressureIn,WindDirection,WindDirectionDegrees,WindSpeedMPH,WindSpeedGustMPH,Humidity,HourlyPrecipIn,Conditions,Clouds,dailyrainin,SoftwareType,DateUTC
2013-01-16 00:53:00,70.0,-99.9,-100.00,North,0,0.0,1.0,-999,-99.99,,,-99.99,,2013-01-16 05:53:00,
2013-01-16 01:43:00,70.0,-99.9,-100.00,East,90,2.0,5.0,-999,-99.99,,,-99.99,,2013-01-16 06:43:00,
2013-01-16 01:53:00,70.0,-99.9,-100.00,East,90,2.0,5.0,-999,-99.99,,,-99.99,,2013-01-16 06:53:00,
2013-01-16 02:52:00,69.0,-99.9,-100.00,North,0,0.0,1.0,-999,-99.99,,,-99.99,,2013-01-16 07:52:00,
2013-01-16 03:53:00,68.0,-99.9,-100.00,SE,130,1.0,2.0,-999,-99.99,,,-99.99,,2013-01-16 08:53:00,
2013-01-16 04:53:00,68.0,-99.9,-100.00,ESE,110,2.0,5.0,-999,-99.99,,,-99.99,,2013-01-16 09:53:00,
2013-01-16 05:53:00,67.0,-99.9,-100.00,North,0,0.0,2.0,-999,-99.99,,,-99.99,,2013-01-16 10:53:00,
2013-01-16 06:53:00,67.0,-99.9,-100.00,North,0,0.0,1.0,-999,-99.99,,,-99.99,,2013-01-16 11:53:00,
2013-01-16 07:53:00,66.0,-99.9,-100.00,North,0,0.0,1.0,-999,-99.99,,,-99.99,,2013-01-16 12:53:00,
2013-01-16 08:43:00,67.0,-99.9,-100.00,North,0,0.0,0.0,-999,-99.99,,,-99.99,,2013-01-16 13:43:00,
2013-01-16 08:53:00,67.0,-99.9,-100.00,North,0,0.0,0.0,-999,-99.99,,,-99.99,,2013-01-16 13:53:00,
2013-01-16 09:53:00,71.0,-99.9,-100.00,ESE,120,2.0,6.0,-999,-99.99,,,-99.99,,2013-01-16 14:53:00,
2013-01-16 10:53:00,72.0,-99.9,-100.00,SE,130,5.0,7.0,-999,-99.99,,,-99.99,,2013-01-16 15:53:00,
2013-01-16 11:53:00,75.0,-99.9,-100.00,SE,130,5.0,13.0,-999,-99.99,,,-99.99,,2013-01-16 16:53:00,
2013-01-16 12:53:00,79.0,-99.9,-100.00,SSE,160,5.0,9.0,-999,-99.99,,,-99.99,,2013-01-16 17:53:00,
2013-01-16 13:53:00,80.0,-99.9,-100.00,SSE,150,3.0,11.0,-999,-99.99,,,-99.99,,2013-01-16 18:53:00,
2013-01-16 14:53:00,80.0,-99.9,-100.00,SSW,200,5.0,6.0,-999,-99.99,,,-99.99,,2013-01-16 19:53:00,
2013-01-16 15:53:00,81.0,-99.9,-100.00,South,180,2.0,6.0,-999,-99.99,,,-99.99,,2013-01-16 20:53:00,
2013-01-16 16:53:00,80.0,-99.9,-100.00,SSW,200,3.0,7.0,-999,-99.99,,,-99.99,,2013-01-16 21:53:00,
2013-01-16 17:53:00,78.0,-99.9,-100.00,SSW,200,3.0,7.0,-999,-99.99,,,-99.99,,2013-01-16 22:53:00,
2013-01-16 18:53:00,74.0,-99.9,-100.00,South,180,2.0,6.0,-999,-99.99,,,-99.99,,2013-01-16 23:53:00,
2013-01-16 19:53:00,72.0,-99.9,-100.00,North,0,0.0,2.0,-999,-99.99,,,-99.99,,2013-01-17 00:53:00,
2013-01-16 20:53:00,71.0,-99.9,-100.00,North,0,0.0,2.0,-999,-99.99,,,-99.99,,2013-01-17 01:53:00,
2013-01-16 22:53:00,67.0,-99.9,-100.00,North,0,0.0,0.0,-999,-99.99,,,-99.99,,2013-01-17 03:53:00,
2013-01-16 23:53:00,66.0,-99.9,-100.00,North,0,0.0,1.0,-999,-99.99,,,-99.99,,2013-01-17 04:53:00,